Time;durP1;ratioP1;P1;durP2;ratioP2;P2;SDS_P1;SDS_P2;PMS_P1;PMS_P2;Temp;Humidity;BMP_temperature;BMP_pressure;BME280_temperature;BME280_humidity;BME280_pressure;Samples;Min_cycle;Max_cycle;Signal;HPM_P1;HPM_P2
2023/12/13 00:01:26;;;;;;;2.20;1.40;;;11.30;99.90;;;;;;4966231;28;20437;-69
2023/12/13 00:03:52;;;;;;;4.13;2.50;;;11.30;99.90;;;;;;4966005;28;20559;-68
2023/12/13 00:06:17;;;;;;;4.60;1.53;;;11.30;99.90;;;;;;4957082;28;20460;-68
2023/12/13 00:08:43;;;;;;;3.30;1.40;;;11.10;99.90;;;;;;4960914;28;20422;-68
2023/12/13 00:11:08;;;;;;;3.20;1.27;;;11.20;99.90;;;;;;4958463;28;20194;-68
2023/12/13 00:13:34;;;;;;;3.63;1.60;;;11.30;99.90;;;;;;4961146;28;20214;-68
2023/12/13 00:16:01;;;;;;;6.07;1.50;;;11.30;99.90;;;;;;4955529;28;20191;-68
2023/12/13 00:18:26;;;;;;;3.27;1.60;;;11.30;99.90;;;;;;4956884;28;20191;-67
2023/12/13 00:20:52;;;;;;;4.90;1.50;;;11.40;99.90;;;;;;4959693;28;20493;-68
2023/12/13 00:23:18;;;;;;;5.93;1.63;;;11.30;99.90;;;;;;4957649;28;20217;-69
2023/12/13 00:25:43;;;;;;;3.47;1.43;;;11.40;99.90;;;;;;4956254;28;20198;-68
2023/12/13 00:28:09;;;;;;;5.93;1.80;;;11.40;99.90;;;;;;4950493;28;20273;-68
2023/12/13 00:30:35;;;;;;;6.57;1.70;;;11.40;99.90;;;;;;4954996;28;20191;-67
2023/12/13 00:33:00;;;;;;;5.00;2.03;;;11.40;99.90;;;;;;4959427;28;20701;-67
2023/12/13 00:35:26;;;;;;;3.57;1.37;;;11.40;99.90;;;;;;4956780;28;20190;-67
2023/12/13 00:37:51;;;;;;;3.07;1.83;;;11.40;99.90;;;;;;4959004;28;20945;-67
2023/12/13 00:40:18;;;;;;;3.63;1.57;;;11.40;99.90;;;;;;4955899;28;20247;-67
2023/12/13 00:42:44;;;;;;;4.17;1.30;;;11.40;99.90;;;;;;4961817;28;20182;-67
2023/12/13 00:45:10;;;;;;;2.10;1.20;;;11.40;99.90;;;;;;4956481;28;20441;-67
2023/12/13 00:47:35;;;;;;;3.93;1.43;;;11.50;99.90;;;;;;4956988;28;20225;-68
2023/12/13 00:50:01;;;;;;;3.53;1.70;;;11.50;99.90;;;;;;4953084;28;20218;-67
2023/12/13 00:52:27;;;;;;;2.80;1.50;;;11.50;99.90;;;;;;4957170;28;20614;-68
2023/12/13 00:54:52;;;;;;;2.83;1.57;;;11.20;99.90;;;;;;4953323;28;20277;-68
2023/12/13 00:57:18;;;;;;;5.23;1.80;;;11.10;99.90;;;;;;4958697;28;20186;-68
2023/12/13 00:59:43;;;;;;;5.80;2.07;;;11.20;99.90;;;;;;4961880;28;20217;-67
2023/12/13 01:02:09;;;;;;;4.67;1.77;;;11.20;99.90;;;;;;4956263;28;20218;-68
2023/12/13 01:04:36;;;;;;;2.97;1.50;;;11.20;99.90;;;;;;4963696;28;20209;-67
2023/12/13 01:07:02;;;;;;;4.53;1.70;;;11.10;99.90;;;;;;4954554;28;20306;-68
2023/12/13 01:09:28;;;;;;;3.13;1.83;;;10.90;99.90;;;;;;4954386;28;20797;-68
2023/12/13 01:11:53;;;;;;;2.63;1.50;;;11.00;99.90;;;;;;4956454;28;20192;-68
2023/12/13 01:14:19;;;;;;;2.70;1.57;;;11.10;99.90;;;;;;4956087;28;20213;-68
2023/12/13 01:16:44;;;;;;;3.10;1.47;;;11.20;99.90;;;;;;4954468;28;20190;-68
2023/12/13 01:19:10;;;;;;;6.10;1.60;;;11.30;99.90;;;;;;4955833;28;20970;-68
2023/12/13 01:21:36;;;;;;;3.13;1.60;;;11.30;99.90;;;;;;4959903;28;20191;-68
2023/12/13 01:24:02;;;;;;;2.73;1.40;;;11.20;99.90;;;;;;4964875;28;20285;-68
2023/12/13 01:26:28;;;;;;;5.17;1.53;;;11.20;99.90;;;;;;4957080;28;20194;-68
2023/12/13 01:28:54;;;;;;;5.83;1.67;;;11.30;99.90;;;;;;4957887;28;20434;-68
2023/12/13 01:31:20;;;;;;;3.60;1.50;;;11.30;99.90;;;;;;4953501;28;20675;-68
2023/12/13 01:33:45;;;;;;;2.93;1.40;;;11.20;99.90;;;;;;4962508;28;20217;-68
2023/12/13 01:36:11;;;;;;;3.77;1.63;;;11.20;99.90;;;;;;4957644;28;20530;-68
2023/12/13 01:38:36;;;;;;;4.90;1.53;;;11.20;99.90;;;;;;4955567;28;20213;-68
2023/12/13 01:41:03;;;;;;;3.80;1.30;;;11.20;99.90;;;;;;4954385;28;20217;-68
2023/12/13 01:43:29;;;;;;;3.03;1.60;;;11.20;99.90;;;;;;4947194;28;20199;-68
2023/12/13 01:45:57;;;;;;;5.00;1.67;;;11.10;99.90;;;;;;4954812;28;20443;-68
2023/12/13 01:48:25;;;;;;;2.77;1.60;;;11.10;99.90;;;;;;4952133;28;20422;-68
2023/12/13 01:50:53;;;;;;;4.90;1.30;;;11.10;99.90;;;;;;4953840;28;20446;-68
2023/12/13 01:53:19;;;;;;;4.13;1.80;;;10.90;99.90;;;;;;4955140;28;21089;-67
2023/12/13 01:55:45;;;;;;;2.30;1.50;;;10.90;99.90;;;;;;4957237;28;20446;-67
2023/12/13 01:58:12;;;;;;;6.43;1.80;;;10.90;99.90;;;;;;4958342;28;20453;-68
2023/12/13 02:00:41;;;;;;;4.00;1.60;;;10.90;99.90;;;;;;4963703;28;20469;-67
2023/12/13 02:03:09;;;;;;;2.70;1.40;;;10.80;99.90;;;;;;4958614;28;20988;-67
2023/12/13 02:05:35;;;;;;;3.10;1.30;;;10.80;99.90;;;;;;4959382;28;20473;-68
2023/12/13 02:08:03;;;;;;;2.20;1.57;;;10.70;99.90;;;;;;4955343;28;20438;-68
2023/12/13 02:10:28;;;;;;;3.60;1.37;;;10.70;99.90;;;;;;4955894;28;20433;-68
2023/12/13 02:12:54;;;;;;;4.70;1.47;;;10.70;99.90;;;;;;4958462;28;20456;-67
2023/12/13 02:15:21;;;;;;;1.87;1.10;;;10.70;99.90;;;;;;4961636;28;20250;-68
2023/12/13 02:17:51;;;;;;;2.33;1.20;;;10.70;99.90;;;;;;4959862;28;20536;-68
2023/12/13 02:20:17;;;;;;;2.07;1.10;;;10.70;99.90;;;;;;4960840;28;20500;-67
2023/12/13 02:22:43;;;;;;;2.20;1.30;;;10.70;99.90;;;;;;4963626;28;20445;-67
2023/12/13 02:25:35;;;;;;;3.60;1.20;;;10.70;99.90;;;;;;4960896;28;20998;-68
2023/12/13 02:28:01;;;;;;;2.33;1.40;;;10.60;99.90;;;;;;4961804;28;20214;-69
2023/12/13 02:30:28;;;;;;;2.40;1.13;;;10.70;99.90;;;;;;4962302;28;20505;-68
2023/12/13 02:32:54;;;;;;;2.20;1.20;;;10.70;99.90;;;;;;4957372;28;20466;-68
2023/12/13 02:35:21;;;;;;;1.80;1.10;;;10.70;99.90;;;;;;4961091;28;21478;-67
2023/12/13 02:37:49;;;;;;;3.33;1.20;;;10.70;99.90;;;;;;4963310;28;20435;-67
2023/12/13 02:40:21;;;;;;;2.10;1.03;;;10.70;99.90;;;;;;4960709;28;20486;-67
2023/12/13 02:42:47;;;;;;;2.70;1.40;;;10.70;99.90;;;;;;4963188;28;21007;-67
2023/12/13 02:45:14;;;;;;;3.17;1.23;;;10.80;99.90;;;;;;4959015;28;20431;-68
2023/12/13 02:47:43;;;;;;;3.30;1.50;;;10.80;99.90;;;;;;4962322;28;20202;-67
2023/12/13 02:50:13;;;;;;;1.97;1.00;;;10.70;99.90;;;;;;4957279;28;20556;-67
2023/12/13 02:52:39;;;;;;;2.63;1.20;;;10.70;99.90;;;;;;4959993;28;20945;-68
2023/12/13 02:55:06;;;;;;;3.70;1.30;;;10.60;99.90;;;;;;4959346;28;20948;-67
2023/12/13 02:57:32;;;;;;;2.90;1.17;;;10.60;99.90;;;;;;4962582;28;20438;-67
2023/12/13 02:59:58;;;;;;;4.00;1.27;;;10.50;99.90;;;;;;4962811;28;20472;-67
2023/12/13 03:02:24;;;;;;;3.03;1.30;;;10.60;99.90;;;;;;4963755;28;20183;-67
2023/12/13 03:04:49;;;;;;;2.67;1.10;;;10.50;99.90;;;;;;4958749;28;20219;-67
2023/12/13 03:07:15;;;;;;;6.53;1.20;;;10.40;99.90;;;;;;4962720;28;20433;-67
2023/12/13 03:09:42;;;;;;;2.47;1.07;;;10.40;99.90;;;;;;4964235;28;20293;-68
2023/12/13 03:12:07;;;;;;;3.50;1.17;;;10.50;99.90;;;;;;4964633;28;20536;-68
2023/12/13 03:14:33;;;;;;;1.73;1.00;;;10.50;99.90;;;;;;4966463;28;20229;-68
2023/12/13 03:16:58;;;;;;;2.00;1.10;;;10.60;99.90;;;;;;4963713;28;20210;-67
2023/12/13 03:19:24;;;;;;;3.07;1.47;;;10.60;99.90;;;;;;4957802;28;20222;-67
2023/12/13 03:21:50;;;;;;;3.87;1.27;;;10.60;99.90;;;;;;4956262;28;20191;-68
2023/12/13 03:24:15;;;;;;;2.93;1.20;;;10.70;99.90;;;;;;4958728;28;20727;-67
2023/12/13 03:26:41;;;;;;;2.77;1.20;;;10.70;99.90;;;;;;4964143;28;20208;-67
2023/12/13 03:29:07;;;;;;;4.10;1.20;;;10.60;99.90;;;;;;4959405;28;20193;-67
2023/12/13 03:31:32;;;;;;;5.10;1.20;;;10.60;99.90;;;;;;4961037;28;20187;-67
2023/12/13 03:34:00;;;;;;;3.20;1.30;;;10.60;99.90;;;;;;4958303;28;20210;-67
2023/12/13 03:36:26;;;;;;;3.00;1.27;;;10.60;99.90;;;;;;4955435;28;20179;-67
2023/12/13 03:38:52;;;;;;;3.10;1.20;;;10.60;99.90;;;;;;4958083;28;20522;-68
2023/12/13 03:41:18;;;;;;;4.80;1.37;;;10.70;99.90;;;;;;4952657;28;21008;-68
2023/12/13 03:43:43;;;;;;;3.40;1.20;;;10.60;99.90;;;;;;4960709;28;20443;-67
2023/12/13 03:46:09;;;;;;;4.00;1.60;;;10.60;99.90;;;;;;4953065;28;20728;-68
2023/12/13 03:48:35;;;;;;;2.07;1.23;;;10.60;99.90;;;;;;4956593;28;20851;-68
2023/12/13 03:51:01;;;;;;;5.37;1.37;;;10.60;99.90;;;;;;4960397;28;20256;-67
2023/12/13 03:53:27;;;;;;;2.20;1.20;;;10.70;99.90;;;;;;4961387;28;20791;-67
2023/12/13 03:55:53;;;;;;;3.63;1.40;;;10.60;99.90;;;;;;4957501;28;20962;-67
2023/12/13 03:58:18;;;;;;;4.77;1.93;;;10.60;99.90;;;;;;4960509;28;20444;-67
2023/12/13 04:00:44;;;;;;;4.93;1.50;;;10.60;99.90;;;;;;4956495;28;20216;-67
2023/12/13 04:03:09;;;;;;;4.53;1.27;;;10.70;99.90;;;;;;4954433;28;20294;-67
2023/12/13 04:05:35;;;;;;;2.67;1.50;;;10.70;99.90;;;;;;4957915;28;20234;-68
2023/12/13 04:08:00;;;;;;;3.07;1.40;;;10.70;99.90;;;;;;4961986;28;20191;-67
2023/12/13 04:10:26;;;;;;;2.93;1.20;;;10.80;99.90;;;;;;4963184;28;20273;-67
2023/12/13 04:12:52;;;;;;;5.13;1.33;;;10.70;99.90;;;;;;4958909;28;20218;-67
2023/12/13 04:15:18;;;;;;;2.40;1.30;;;10.70;99.90;;;;;;4954910;28;20191;-68
2023/12/13 04:17:43;;;;;;;4.20;1.40;;;10.60;99.90;;;;;;4960109;28;20448;-67
2023/12/13 04:20:09;;;;;;;2.77;1.67;;;10.60;99.90;;;;;;4953946;28;20266;-67
2023/12/13 04:22:35;;;;;;;3.13;1.33;;;10.70;99.90;;;;;;4954906;28;20195;-67
2023/12/13 04:25:00;;;;;;;4.07;1.67;;;10.70;99.90;;;;;;4960040;28;20429;-68
2023/12/13 04:27:26;;;;;;;3.17;1.70;;;10.70;99.90;;;;;;4963145;28;20190;-67
2023/12/13 04:29:52;;;;;;;1.87;1.20;;;10.70;99.90;;;;;;4957550;28;20297;-67
2023/12/13 04:32:17;;;;;;;3.40;1.77;;;10.70;99.90;;;;;;4955372;28;20202;-67
2023/12/13 04:34:43;;;;;;;3.20;1.73;;;10.70;99.90;;;;;;4960145;28;20293;-67
2023/12/13 04:37:09;;;;;;;6.30;1.67;;;10.70;99.90;;;;;;4956795;28;20223;-67
2023/12/13 04:39:35;;;;;;;2.27;1.43;;;10.70;99.90;;;;;;4959218;28;20469;-68
2023/12/13 04:42:00;;;;;;;2.80;1.37;;;10.70;99.90;;;;;;4956510;28;20182;-68
2023/12/13 04:44:27;;;;;;;4.97;1.40;;;10.70;99.90;;;;;;4957810;28;20650;-67
2023/12/13 04:46:54;;;;;;;2.93;1.53;;;10.70;99.90;;;;;;4959693;28;20186;-68
2023/12/13 04:49:20;;;;;;;3.20;1.83;;;10.70;99.90;;;;;;4955517;28;20438;-67
2023/12/13 04:51:45;;;;;;;2.57;1.43;;;10.70;99.90;;;;;;4956487;28;20441;-68
2023/12/13 04:54:11;;;;;;;4.73;1.97;;;10.80;99.90;;;;;;4960334;28;20210;-67
2023/12/13 04:56:37;;;;;;;3.33;1.60;;;10.80;99.90;;;;;;4956665;28;20819;-68
2023/12/13 04:59:02;;;;;;;3.23;1.70;;;10.80;99.90;;;;;;4959280;28;20182;-67
2023/12/13 05:01:28;;;;;;;3.70;1.53;;;10.80;99.90;;;;;;4956912;28;20253;-68
2023/12/13 05:03:54;;;;;;;1.87;1.30;;;10.80;99.90;;;;;;4957379;28;20308;-68
2023/12/13 05:06:19;;;;;;;6.13;1.40;;;10.90;99.90;;;;;;4961569;28;20862;-67
2023/12/13 05:08:46;;;;;;;4.30;1.70;;;10.90;99.90;;;;;;4963177;28;20315;-68
2023/12/13 05:11:12;;;;;;;3.00;1.50;;;10.90;99.90;;;;;;4959143;28;20186;-67
2023/12/13 05:13:37;;;;;;;3.10;1.40;;;10.90;99.90;;;;;;4960207;28;21140;-67
2023/12/13 05:16:03;;;;;;;2.37;1.63;;;10.90;99.90;;;;;;4957784;28;20194;-67
2023/12/13 05:18:29;;;;;;;2.37;1.50;;;10.90;99.90;;;;;;4958006;28;20198;-67
2023/12/13 05:20:55;;;;;;;3.80;2.13;;;10.90;99.90;;;;;;4959453;28;20465;-67
2023/12/13 05:23:21;;;;;;;2.90;1.50;;;10.90;99.90;;;;;;4953844;28;20202;-68
2023/12/13 05:25:46;;;;;;;3.13;1.90;;;10.90;99.90;;;;;;4959809;28;20323;-68
2023/12/13 05:28:12;;;;;;;3.13;1.60;;;11.00;99.90;;;;;;4952409;28;20314;-67
2023/12/13 05:30:37;;;;;;;4.13;2.10;;;11.00;99.90;;;;;;4962955;28;20188;-67
2023/12/13 05:33:05;;;;;;;4.10;1.90;;;11.00;99.90;;;;;;4968603;28;20208;-67
2023/12/13 05:35:31;;;;;;;6.00;1.87;;;11.00;99.90;;;;;;4954229;28;20190;-67
2023/12/13 05:37:57;;;;;;;6.00;1.77;;;11.00;99.90;;;;;;4960524;28;20445;-67
2023/12/13 05:40:22;;;;;;;3.50;1.73;;;11.00;99.90;;;;;;4958598;28;20210;-67
2023/12/13 05:42:48;;;;;;;4.90;2.03;;;11.00;99.90;;;;;;4962156;28;20289;-66
2023/12/13 05:45:14;;;;;;;3.33;1.80;;;10.90;99.90;;;;;;4961248;28;21538;-67
2023/12/13 05:47:39;;;;;;;5.63;2.80;;;10.90;99.90;;;;;;4966538;28;20465;-68
2023/12/13 05:50:06;;;;;;;3.83;1.97;;;10.90;99.90;;;;;;4962248;28;20217;-67
2023/12/13 05:52:32;;;;;;;4.33;2.40;;;10.90;99.90;;;;;;4962597;28;20871;-67
2023/12/13 05:54:58;;;;;;;4.47;1.80;;;10.90;99.90;;;;;;4965105;28;21018;-68
2023/12/13 05:57:24;;;;;;;2.57;1.60;;;10.90;99.90;;;;;;4961523;28;20786;-67
2023/12/13 05:59:50;;;;;;;3.43;1.80;;;10.90;99.90;;;;;;4965026;28;20469;-67
2023/12/13 06:02:15;;;;;;;6.60;2.00;;;10.90;99.90;;;;;;4956298;28;20185;-68
2023/12/13 06:04:42;;;;;;;2.40;1.70;;;10.90;99.90;;;;;;4962067;28;20226;-68
2023/12/13 06:07:11;;;;;;;6.00;1.70;;;10.90;99.90;;;;;;4956774;28;20205;-68
2023/12/13 06:09:39;;;;;;;5.07;2.10;;;11.00;99.90;;;;;;4963646;28;20431;-68
2023/12/13 06:12:05;;;;;;;3.80;1.50;;;10.90;99.90;;;;;;4964297;28;20444;-68
2023/12/13 06:14:31;;;;;;;4.70;1.70;;;11.00;99.90;;;;;;4963002;28;20437;-68
2023/12/13 06:16:57;;;;;;;3.03;1.73;;;11.00;99.90;;;;;;4958843;28;20185;-68
2023/12/13 06:19:26;;;;;;;4.30;1.80;;;11.00;99.90;;;;;;4960497;28;20187;-68
2023/12/13 06:21:52;;;;;;;2.40;1.43;;;10.90;99.90;;;;;;4960919;28;20432;-68
2023/12/13 06:24:18;;;;;;;7.10;1.57;;;10.90;99.90;;;;;;4960896;28;20448;-68
2023/12/13 06:26:44;;;;;;;3.70;1.53;;;10.90;99.90;;;;;;4959998;28;20428;-67
2023/12/13 06:29:11;;;;;;;2.27;1.30;;;10.90;99.90;;;;;;4961878;28;20618;-68
2023/12/13 06:31:37;;;;;;;3.63;1.40;;;10.90;99.90;;;;;;4960759;28;20195;-68
2023/12/13 06:34:02;;;;;;;6.30;1.77;;;10.90;99.90;;;;;;4949109;28;20516;-68
2023/12/13 06:36:29;;;;;;;3.53;1.67;;;11.00;99.90;;;;;;4962757;28;20438;-68
2023/12/13 06:38:54;;;;;;;2.90;1.30;;;10.90;99.90;;;;;;4963129;28;20205;-68
2023/12/13 06:41:20;;;;;;;2.07;1.30;;;10.90;99.90;;;;;;4965931;28;20478;-68
2023/12/13 06:43:47;;;;;;;2.70;1.37;;;10.90;99.90;;;;;;4957902;28;20211;-68
2023/12/13 06:46:12;;;;;;;5.10;1.30;;;10.90;99.90;;;;;;4963012;28;20183;-68
2023/12/13 06:48:38;;;;;;;3.37;1.43;;;10.90;99.90;;;;;;4965679;28;20445;-68
2023/12/13 06:51:04;;;;;;;5.20;1.77;;;10.90;99.90;;;;;;4957337;28;20867;-68
2023/12/13 06:53:30;;;;;;;3.60;1.97;;;10.90;99.90;;;;;;4960677;28;20576;-68
2023/12/13 06:55:56;;;;;;;2.87;1.33;;;10.90;99.90;;;;;;4962700;28;20430;-68
2023/12/13 06:58:22;;;;;;;3.20;1.70;;;10.90;99.90;;;;;;4962933;28;20220;-68
2023/12/13 07:00:48;;;;;;;3.50;1.60;;;10.90;99.90;;;;;;4964078;28;20553;-68
2023/12/13 07:03:13;;;;;;;2.70;1.70;;;10.90;99.90;;;;;;4971013;28;20198;-68
2023/12/13 07:05:39;;;;;;;2.63;1.63;;;10.90;99.90;;;;;;4962333;28;20206;-68
2023/12/13 07:08:05;;;;;;;2.30;1.77;;;10.90;99.90;;;;;;4957107;28;20662;-68
2023/12/13 07:10:30;;;;;;;4.00;1.90;;;11.00;99.90;;;;;;4962179;28;20234;-68
2023/12/13 07:12:56;;;;;;;3.40;1.57;;;10.90;99.90;;;;;;4977347;28;20203;-68
2023/12/13 07:15:21;;;;;;;3.70;1.50;;;10.90;99.90;;;;;;4961803;28;20214;-68
2023/12/13 07:17:47;;;;;;;3.23;1.90;;;11.00;99.90;;;;;;4964466;28;20278;-68
2023/12/13 07:20:13;;;;;;;3.23;1.70;;;11.00;99.90;;;;;;4963563;28;20242;-68
2023/12/13 07:22:39;;;;;;;3.43;2.73;;;11.00;99.90;;;;;;4961657;28;20198;-68
2023/12/13 07:25:06;;;;;;;3.83;1.90;;;11.10;99.90;;;;;;4957987;28;20178;-68
2023/12/13 07:27:33;;;;;;;3.50;1.40;;;11.10;99.90;;;;;;4954025;28;20437;-68
2023/12/13 07:29:59;;;;;;;4.70;2.20;;;11.10;99.90;;;;;;4960334;28;20426;-68
2023/12/13 07:32:24;;;;;;;3.20;1.60;;;11.10;99.90;;;;;;4956824;28;20931;-68
2023/12/13 07:34:50;;;;;;;3.33;1.63;;;11.20;99.90;;;;;;4958217;28;20221;-68
2023/12/13 07:37:16;;;;;;;4.70;2.07;;;11.20;99.90;;;;;;4958518;28;20293;-68
2023/12/13 07:39:42;;;;;;;4.50;1.57;;;11.20;99.90;;;;;;4957737;28;20227;-68
2023/12/13 07:42:08;;;;;;;2.70;1.70;;;11.20;99.90;;;;;;4962605;28;20233;-67
2023/12/13 07:44:33;;;;;;;2.83;1.83;;;11.20;99.90;;;;;;4957849;28;20458;-68
2023/12/13 07:46:59;;;;;;;3.93;1.60;;;11.10;99.90;;;;;;4958790;28;20265;-68
2023/12/13 07:49:26;;;;;;;4.50;1.80;;;11.10;99.90;;;;;;4970380;28;20186;-68
2023/12/13 07:51:52;;;;;;;2.90;1.70;;;11.10;99.90;;;;;;4967754;28;20793;-68
2023/12/13 07:54:18;;;;;;;3.90;1.53;;;11.10;99.90;;;;;;4964637;28;20450;-68
2023/12/13 07:56:45;;;;;;;2.50;1.37;;;11.10;99.90;;;;;;4961108;28;20257;-68
2023/12/13 07:59:12;;;;;;;3.60;1.83;;;11.00;99.90;;;;;;4964539;28;20549;-68
2023/12/13 08:01:37;;;;;;;3.63;1.70;;;11.00;99.90;;;;;;4965465;28;20889;-68
2023/12/13 08:04:03;;;;;;;5.67;3.53;;;11.00;99.90;;;;;;4962050;28;20512;-68
2023/12/13 08:06:28;;;;;;;4.47;2.87;;;11.00;99.90;;;;;;4963959;28;20195;-68
2023/12/13 08:08:54;;;;;;;4.33;2.57;;;10.80;99.90;;;;;;4964817;28;20187;-68
2023/12/13 08:11:20;;;;;;;4.60;2.33;;;10.80;99.90;;;;;;4959901;28;20195;-69
2023/12/13 08:13:45;;;;;;;3.33;2.20;;;10.80;99.90;;;;;;4967570;28;20225;-68
2023/12/13 08:16:11;;;;;;;5.63;2.43;;;10.90;99.90;;;;;;4966789;28;20245;-68
2023/12/13 08:18:37;;;;;;;4.50;2.60;;;11.00;99.90;;;;;;4961826;28;21344;-68
2023/12/13 08:21:06;;;;;;;3.30;1.90;;;11.00;99.90;;;;;;4965560;28;20306;-68
2023/12/13 08:23:32;;;;;;;3.20;1.80;;;11.00;99.90;;;;;;4956907;28;20468;-68
2023/12/13 08:25:57;;;;;;;2.87;1.60;;;11.10;99.90;;;;;;4965143;28;20452;-68
2023/12/13 08:28:23;;;;;;;3.30;1.60;;;11.10;99.90;;;;;;4958109;28;20438;-68
2023/12/13 08:30:49;;;;;;;3.33;1.33;;;11.10;99.90;;;;;;4962631;28;20195;-68
2023/12/13 08:33:14;;;;;;;3.27;1.60;;;11.10;99.90;;;;;;4957567;28;20228;-68
2023/12/13 08:35:40;;;;;;;3.27;2.10;;;11.00;99.90;;;;;;4959665;28;20271;-68
2023/12/13 08:38:05;;;;;;;2.90;1.77;;;11.00;99.90;;;;;;4962856;28;20253;-68
2023/12/13 08:40:31;;;;;;;4.83;2.10;;;11.00;99.90;;;;;;4956598;28;20671;-68
2023/12/13 08:42:56;;;;;;;4.10;2.37;;;10.90;99.90;;;;;;4955802;28;20206;-68
2023/12/13 08:45:22;;;;;;;3.53;2.00;;;11.00;99.90;;;;;;4959196;28;20274;-68
2023/12/13 08:47:48;;;;;;;3.27;1.60;;;11.00;99.90;;;;;;4963773;28;20246;-68
2023/12/13 08:50:14;;;;;;;2.90;1.83;;;10.90;99.90;;;;;;4965916;28;20190;-68
2023/12/13 08:52:40;;;;;;;6.37;2.13;;;11.00;99.90;;;;;;4961572;28;20569;-68
2023/12/13 08:55:10;;;;;;;3.77;1.90;;;11.10;99.90;;;;;;4965027;28;20999;-68
2023/12/13 08:57:35;;;;;;;3.17;2.30;;;11.10;99.90;;;;;;4961948;28;20810;-67
2023/12/13 09:00:01;;;;;;;4.83;1.90;;;11.10;99.90;;;;;;4963294;28;20535;-68
2023/12/13 09:02:27;;;;;;;2.93;1.93;;;11.10;99.90;;;;;;4961136;28;20426;-68
2023/12/13 09:04:52;;;;;;;3.23;1.70;;;11.10;99.90;;;;;;4959981;28;20214;-68
2023/12/13 09:07:18;;;;;;;3.77;2.00;;;11.10;99.90;;;;;;4960548;28;20191;-68
2023/12/13 09:09:44;;;;;;;4.17;2.10;;;11.20;99.90;;;;;;4965316;28;20190;-68
2023/12/13 09:12:12;;;;;;;3.00;2.00;;;11.20;99.90;;;;;;4955797;28;20757;-68
2023/12/13 09:14:38;;;;;;;6.73;2.70;;;11.20;99.90;;;;;;4958797;28;20449;-68
2023/12/13 09:17:06;;;;;;;6.83;2.50;;;11.10;99.90;;;;;;4968027;28;20440;-67
2023/12/13 09:19:31;;;;;;;3.93;2.07;;;11.10;99.90;;;;;;4961142;28;20418;-67
2023/12/13 09:21:57;;;;;;;4.73;2.40;;;11.20;99.90;;;;;;4960582;28;20457;-68
2023/12/13 09:24:23;;;;;;;4.50;2.70;;;11.20;99.90;;;;;;4957684;28;20202;-67
2023/12/13 09:26:49;;;;;;;3.50;2.00;;;11.30;99.90;;;;;;4961936;28;20660;-67
2023/12/13 09:29:15;;;;;;;4.70;2.70;;;11.30;99.90;;;;;;4962974;28;20716;-67
2023/12/13 09:31:41;;;;;;;4.57;2.23;;;11.30;99.90;;;;;;4959380;28;20461;-68
2023/12/13 09:34:06;;;;;;;5.30;2.73;;;11.30;99.90;;;;;;4957203;28;20547;-68
2023/12/13 09:36:33;;;;;;;4.80;2.50;;;11.40;99.90;;;;;;4955767;28;20289;-67
2023/12/13 09:38:58;;;;;;;3.70;2.37;;;11.50;99.90;;;;;;4959214;28;20187;-67
2023/12/13 09:41:30;;;;;;;6.77;2.30;;;11.50;99.90;;;;;;4957292;28;21058;-67
2023/12/13 09:43:56;;;;;;;5.10;2.40;;;11.50;99.90;;;;;;4956218;28;20203;-67
2023/12/13 09:46:23;;;;;;;4.40;2.50;;;11.60;99.90;;;;;;4959933;28;20454;-67
2023/12/13 09:48:50;;;;;;;7.50;2.47;;;11.60;99.90;;;;;;4956191;28;20560;-68
2023/12/13 09:51:21;;;;;;;7.77;3.50;;;11.60;99.90;;;;;;4960217;28;20541;-67
2023/12/13 09:53:51;;;;;;;5.37;2.93;;;11.60;99.90;;;;;;4953795;28;20513;-67
2023/12/13 09:56:19;;;;;;;6.80;2.50;;;11.60;99.90;;;;;;4955594;28;20441;-68
2023/12/13 09:58:45;;;;;;;6.30;2.70;;;11.50;99.90;;;;;;4956843;28;20442;-68
2023/12/13 10:01:12;;;;;;;4.20;2.70;;;11.50;99.90;;;;;;4959298;28;20777;-68
2023/12/13 10:03:45;;;;;;;5.70;2.47;;;11.50;99.90;;;;;;4954595;28;20216;-69
2023/12/13 10:06:10;;;;;;;6.40;3.07;;;11.50;99.90;;;;;;4952568;28;20438;-68
2023/12/13 10:08:36;;;;;;;6.73;2.70;;;11.50;99.90;;;;;;4954270;28;20447;-68
2023/12/13 10:11:06;;;;;;;5.07;3.00;;;11.60;99.90;;;;;;4952425;28;20555;-68
2023/12/13 10:13:34;;;;;;;4.93;2.43;;;11.70;99.90;;;;;;4955075;28;20217;-67
2023/12/13 10:16:14;;;;;;;4.63;2.70;;;11.70;99.90;;;;;;4959979;28;22124;-68
2023/12/13 10:18:40;;;;;;;3.70;2.23;;;11.90;99.90;;;;;;4955995;28;20441;-68
2023/12/13 10:21:08;;;;;;;5.00;2.63;;;11.90;99.90;;;;;;4957740;28;20480;-68
2023/12/13 10:23:34;;;;;;;6.77;2.70;;;12.00;99.90;;;;;;4955807;28;20473;-68
2023/12/13 10:26:01;;;;;;;6.33;2.40;;;12.10;99.90;;;;;;4959560;28;20478;-68
2023/12/13 10:28:26;;;;;;;3.80;2.00;;;12.00;99.90;;;;;;4958780;28;20484;-68
2023/12/13 10:30:52;;;;;;;5.03;1.90;;;12.10;99.90;;;;;;4962002;28;20445;-68
2023/12/13 10:33:18;;;;;;;3.20;2.00;;;12.30;99.90;;;;;;4964687;28;20234;-68
2023/12/13 10:35:44;;;;;;;3.37;1.90;;;12.30;99.90;;;;;;4964154;28;20202;-68
2023/12/13 10:38:14;;;;;;;7.20;2.13;;;12.40;99.90;;;;;;4960572;28;20426;-68
2023/12/13 10:40:41;;;;;;;3.60;1.80;;;12.30;99.90;;;;;;4953915;28;20265;-68
2023/12/13 10:43:10;;;;;;;5.00;2.70;;;12.40;99.90;;;;;;4960040;28;20443;-68
2023/12/13 10:45:43;;;;;;;5.40;2.10;;;12.50;99.90;;;;;;4963855;28;20645;-68
2023/12/13 10:48:12;;;;;;;5.37;2.00;;;12.50;99.90;;;;;;4963341;28;21058;-68
2023/12/13 10:50:38;;;;;;;3.70;1.80;;;12.60;99.90;;;;;;4956534;28;20447;-69
2023/12/13 10:53:07;;;;;;;4.80;2.03;;;12.70;99.90;;;;;;4957181;28;20483;-67
2023/12/13 10:55:32;;;;;;;5.63;2.10;;;12.70;99.90;;;;;;4960174;28;20444;-67
2023/12/13 10:57:58;;;;;;;4.90;2.27;;;12.80;99.90;;;;;;4959514;28;20437;-67
2023/12/13 11:00:27;;;;;;;5.07;2.47;;;12.80;99.90;;;;;;4960660;28;20281;-69
2023/12/13 11:03:02;;;;;;;3.23;2.00;;;12.80;99.90;;;;;;4958519;28;20250;-67
2023/12/13 11:05:28;;;;;;;8.73;2.40;;;12.80;99.90;;;;;;4957673;28;20440;-69
2023/12/13 11:07:53;;;;;;;6.33;1.93;;;12.80;99.90;;;;;;4961409;28;20491;-68
2023/12/13 11:10:19;;;;;;;4.80;2.40;;;12.80;99.90;;;;;;4960687;28;20226;-68
2023/12/13 11:12:52;;;;;;;3.03;1.97;;;12.70;99.90;;;;;;4964589;28;20553;-67
2023/12/13 11:15:19;;;;;;;5.13;2.53;;;12.70;99.90;;;;;;4957246;28;20187;-67
2023/12/13 11:17:48;;;;;;;5.20;1.80;;;12.60;99.90;;;;;;4961051;28;20470;-68
2023/12/13 11:20:15;;;;;;;4.27;1.90;;;12.40;99.90;;;;;;4962897;28;20484;-67
2023/12/13 11:22:50;;;;;;;4.83;2.00;;;12.60;99.90;;;;;;4961735;28;20960;-68
2023/12/13 11:25:16;;;;;;;4.10;2.03;;;12.60;99.90;;;;;;4964828;28;20440;-67
2023/12/13 11:27:53;;;;;;;2.50;1.60;;;12.50;99.90;;;;;;4960222;28;20448;-67
2023/12/13 11:30:20;;;;;;;4.63;1.83;;;12.50;99.90;;;;;;4962298;28;20540;-67
2023/12/13 11:32:46;;;;;;;7.43;2.20;;;12.50;99.90;;;;;;4956319;28;20454;-68
2023/12/13 11:35:14;;;;;;;2.60;1.40;;;12.30;99.90;;;;;;4961179;28;20454;-68
2023/12/13 11:37:40;;;;;;;2.40;1.20;;;11.90;99.90;;;;;;4973101;28;20425;-67
2023/12/13 11:40:07;;;;;;;2.33;1.47;;;11.60;99.90;;;;;;4965928;28;20476;-67
2023/12/13 11:42:32;;;;;;;3.00;1.37;;;11.40;99.90;;;;;;4957654;28;20417;-67
2023/12/13 11:44:58;;;;;;;4.10;1.80;;;11.40;99.90;;;;;;4966517;28;20421;-67
2023/12/13 11:47:25;;;;;;;7.43;1.90;;;11.40;99.90;;;;;;4958165;28;20245;-67
2023/12/13 11:49:51;;;;;;;4.27;2.43;;;11.40;99.90;;;;;;4965423;28;20429;-67
2023/12/13 11:52:16;;;;;;;4.47;2.10;;;11.40;99.90;;;;;;4962025;28;20448;-67
2023/12/13 11:54:42;;;;;;;2.20;1.67;;;11.40;99.90;;;;;;4959026;28;20230;-67
2023/12/13 11:57:15;;;;;;;4.60;1.87;;;11.30;99.90;;;;;;4964977;28;20211;-66
2023/12/13 11:59:42;;;;;;;2.47;1.60;;;11.40;99.90;;;;;;4968029;28;20248;-67
2023/12/13 12:02:09;;;;;;;4.63;2.13;;;11.40;99.90;;;;;;4966640;28;20448;-68
2023/12/13 12:04:35;;;;;;;4.67;1.40;;;11.50;99.90;;;;;;4971902;28;20545;-67
2023/12/13 12:07:01;;;;;;;4.50;1.67;;;11.40;99.90;;;;;;4960065;28;20451;-68
2023/12/13 12:09:27;;;;;;;3.40;1.80;;;11.40;99.90;;;;;;4958340;28;20418;-69
2023/12/13 12:11:54;;;;;;;3.57;1.80;;;11.40;99.90;;;;;;4958700;28;20184;-67
2023/12/13 12:14:19;;;;;;;3.23;1.57;;;11.50;99.90;;;;;;4957484;28;20441;-67
2023/12/13 12:16:45;;;;;;;3.00;2.00;;;11.50;99.90;;;;;;4959212;28;21024;-67
2023/12/13 12:19:11;;;;;;;3.07;1.73;;;11.50;99.90;;;;;;4961581;28;20191;-67
2023/12/13 12:21:36;;;;;;;2.43;1.50;;;11.50;99.90;;;;;;4964615;28;20217;-67
2023/12/13 12:24:03;;;;;;;3.00;1.67;;;11.50;99.90;;;;;;4963661;28;20229;-67
2023/12/13 12:26:28;;;;;;;6.57;1.80;;;11.40;99.90;;;;;;4969282;28;20190;-68
2023/12/13 12:28:54;;;;;;;4.40;2.00;;;11.40;99.90;;;;;;4958398;28;20425;-68
2023/12/13 12:31:20;;;;;;;4.10;1.80;;;11.40;99.90;;;;;;4961795;28;20193;-67
2023/12/13 12:33:53;;;;;;;5.37;2.10;;;11.50;99.90;;;;;;4957623;28;20549;-67
2023/12/13 12:36:19;;;;;;;3.83;2.10;;;11.50;99.90;;;;;;4957253;28;20955;-67
2023/12/13 12:38:48;;;;;;;5.37;2.07;;;11.50;99.90;;;;;;4955109;28;20473;-67
2023/12/13 12:41:14;;;;;;;2.57;1.70;;;11.50;99.90;;;;;;4956246;28;20215;-67
2023/12/13 12:43:40;;;;;;;4.93;1.97;;;11.40;99.90;;;;;;4961216;28;20478;-68